sensor_id;sensor_type;location;lat;lon;timestamp;temperature;humidity
5924;DHT22;2987;50.884;14.818;2023-01-29T00:01:08;-1.00;99.90
5924;DHT22;2987;50.884;14.818;2023-01-29T00:03:41;-1.20;99.90
5924;DHT22;2987;50.884;14.818;2023-01-29T00:06:13;-1.50;99.90
5924;DHT22;2987;50.884;14.818;2023-01-29T00:08:44;-1.10;99.90
5924;DHT22;2987;50.884;14.818;2023-01-29T00:11:15;-1.60;99.90
5924;DHT22;2987;50.884;14.818;2023-01-29T00:13:47;-1.30;99.90
5924;DHT22;2987;50.884;14.818;2023-01-29T00:16:23;-1.10;99.90
5924;DHT22;2987;50.884;14.818;2023-01-29T00:18:54;-1.20;99.90
5924;DHT22;2987;50.884;14.818;2023-01-29T00:21:25;-1.30;99.90
5924;DHT22;2987;50.884;14.818;2023-01-29T00:23:59;-1.30;99.90
5924;DHT22;2987;50.884;14.818;2023-01-29T00:26:31;-1.30;99.90
5924;DHT22;2987;50.884;14.818;2023-01-29T00:29:00;-1.30;99.90
5924;DHT22;2987;50.884;14.818;2023-01-29T00:31:32;-1.30;99.90
5924;DHT22;2987;50.884;14.818;2023-01-29T00:34:04;-1.30;99.90
5924;DHT22;2987;50.884;14.818;2023-01-29T00:36:35;-1.30;99.90
5924;DHT22;2987;50.884;14.818;2023-01-29T00:39:06;-1.20;99.90
5924;DHT22;2987;50.884;14.818;2023-01-29T00:41:38;-1.40;99.90
5924;DHT22;2987;50.884;14.818;2023-01-29T00:44:36;-1.00;99.90
5924;DHT22;2987;50.884;14.818;2023-01-29T00:47:25;-1.10;99.90
5924;DHT22;2987;50.884;14.818;2023-01-29T00:50:03;-1.50;99.90
5924;DHT22;2987;50.884;14.818;2023-01-29T00:53:00;-1.30;99.90
5924;DHT22;2987;50.884;14.818;2023-01-29T00:55:29;-1.10;99.90
5924;DHT22;2987;50.884;14.818;2023-01-29T00:58:06;-1.00;99.90
5924;DHT22;2987;50.884;14.818;2023-01-29T01:00:35;-1.20;99.90
5924;DHT22;2987;50.884;14.818;2023-01-29T01:03:08;-1.20;99.90
5924;DHT22;2987;50.884;14.818;2023-01-29T01:05:39;-1.30;99.90
5924;DHT22;2987;50.884;14.818;2023-01-29T01:08:16;-1.10;99.90
5924;DHT22;2987;50.884;14.818;2023-01-29T01:11:11;-1.60;99.90
5924;DHT22;2987;50.884;14.818;2023-01-29T01:13:53;-1.30;99.90
5924;DHT22;2987;50.884;14.818;2023-01-29T01:16:24;-1.00;99.90
5924;DHT22;2987;50.884;14.818;2023-01-29T01:19:05;-1.30;99.90
5924;DHT22;2987;50.884;14.818;2023-01-29T01:21:36;-1.20;99.90
5924;DHT22;2987;50.884;14.818;2023-01-29T01:24:05;-1.40;99.90
5924;DHT22;2987;50.884;14.818;2023-01-29T01:26:37;-1.20;99.90
5924;DHT22;2987;50.884;14.818;2023-01-29T01:29:08;-1.30;99.90
5924;DHT22;2987;50.884;14.818;2023-01-29T01:31:42;-1.30;99.90
5924;DHT22;2987;50.884;14.818;2023-01-29T01:34:17;-1.60;99.90
5924;DHT22;2987;50.884;14.818;2023-01-29T01:36:47;-1.10;99.90
5924;DHT22;2987;50.884;14.818;2023-01-29T01:39:18;-1.60;99.90
5924;DHT22;2987;50.884;14.818;2023-01-29T01:41:48;-1.30;99.90
5924;DHT22;2987;50.884;14.818;2023-01-29T01:44:49;-1.60;99.90
5924;DHT22;2987;50.884;14.818;2023-01-29T01:50:04;-1.30;99.90
5924;DHT22;2987;50.884;14.818;2023-01-29T01:52:43;-1.30;99.90
5924;DHT22;2987;50.884;14.818;2023-01-29T01:55:18;-1.20;99.90
5924;DHT22;2987;50.884;14.818;2023-01-29T01:57:54;-1.40;99.90
5924;DHT22;2987;50.884;14.818;2023-01-29T02:00:39;-1.40;99.90
5924;DHT22;2987;50.884;14.818;2023-01-29T02:03:09;-1.40;99.90
5924;DHT22;2987;50.884;14.818;2023-01-29T02:06:00;-1.40;99.90
5924;DHT22;2987;50.884;14.818;2023-01-29T02:11:44;-1.50;99.90
5924;DHT22;2987;50.884;14.818;2023-01-29T02:14:15;-1.10;99.90
5924;DHT22;2987;50.884;14.818;2023-01-29T02:16:47;-1.30;99.90
5924;DHT22;2987;50.884;14.818;2023-01-29T02:19:26;-1.10;99.90
5924;DHT22;2987;50.884;14.818;2023-01-29T02:22:05;-1.30;99.90
5924;DHT22;2987;50.884;14.818;2023-01-29T02:27:13;-1.30;99.90
5924;DHT22;2987;50.884;14.818;2023-01-29T02:30:27;-1.10;99.90
5924;DHT22;2987;50.884;14.818;2023-01-29T02:33:25;-1.10;99.90
5924;DHT22;2987;50.884;14.818;2023-01-29T02:36:08;-1.10;99.90
5924;DHT22;2987;50.884;14.818;2023-01-29T02:38:49;-1.10;99.90
5924;DHT22;2987;50.884;14.818;2023-01-29T02:41:31;-1.00;99.90
5924;DHT22;2987;50.884;14.818;2023-01-29T02:44:20;-1.10;99.90
5924;DHT22;2987;50.884;14.818;2023-01-29T02:47:01;-1.10;99.90
5924;DHT22;2987;50.884;14.818;2023-01-29T02:50:12;-1.10;99.90
5924;DHT22;2987;50.884;14.818;2023-01-29T02:55:48;-1.30;99.90
5924;DHT22;2987;50.884;14.818;2023-01-29T03:01:06;-1.00;99.90
5924;DHT22;2987;50.884;14.818;2023-01-29T03:03:44;-1.10;99.90
5924;DHT22;2987;50.884;14.818;2023-01-29T03:06:30;-1.00;99.90
5924;DHT22;2987;50.884;14.818;2023-01-29T03:09:09;-1.10;99.90
5924;DHT22;2987;50.884;14.818;2023-01-29T03:12:09;-1.00;99.90
5924;DHT22;2987;50.884;14.818;2023-01-29T03:15:12;-1.20;99.90
5924;DHT22;2987;50.884;14.818;2023-01-29T03:18:08;-1.30;99.90
5924;DHT22;2987;50.884;14.818;2023-01-29T03:20:44;-1.10;99.90
5924;DHT22;2987;50.884;14.818;2023-01-29T03:23:23;-1.30;99.90
5924;DHT22;2987;50.884;14.818;2023-01-29T03:26:19;-1.00;99.90
5924;DHT22;2987;50.884;14.818;2023-01-29T03:29:10;-1.20;99.90
5924;DHT22;2987;50.884;14.818;2023-01-29T03:31:59;-1.20;99.90
5924;DHT22;2987;50.884;14.818;2023-01-29T03:34:48;-1.30;99.90
5924;DHT22;2987;50.884;14.818;2023-01-29T03:37:29;-1.60;99.90
5924;DHT22;2987;50.884;14.818;2023-01-29T03:40:13;-1.30;99.90
5924;DHT22;2987;50.884;14.818;2023-01-29T03:45:53;-1.30;99.90
5924;DHT22;2987;50.884;14.818;2023-01-29T03:48:39;-1.30;99.90
5924;DHT22;2987;50.884;14.818;2023-01-29T03:54:29;-1.30;99.90
5924;DHT22;2987;50.884;14.818;2023-01-29T03:57:16;-1.30;99.90
5924;DHT22;2987;50.884;14.818;2023-01-29T04:09:08;-1.80;99.90
5924;DHT22;2987;50.884;14.818;2023-01-29T04:11:45;-1.50;99.90
5924;DHT22;2987;50.884;14.818;2023-01-29T04:14:21;-1.70;99.90
5924;DHT22;2987;50.884;14.818;2023-01-29T04:17:11;-1.60;99.90
5924;DHT22;2987;50.884;14.818;2023-01-29T04:19:58;-1.40;99.90
5924;DHT22;2987;50.884;14.818;2023-01-29T04:22:35;-1.60;99.90
5924;DHT22;2987;50.884;14.818;2023-01-29T04:25:10;-1.50;99.90
5924;DHT22;2987;50.884;14.818;2023-01-29T04:28:09;-1.50;99.90
5924;DHT22;2987;50.884;14.818;2023-01-29T04:33:24;-1.50;99.90
5924;DHT22;2987;50.884;14.818;2023-01-29T04:36:02;-1.70;99.90
5924;DHT22;2987;50.884;14.818;2023-01-29T04:38:48;-1.70;99.90
5924;DHT22;2987;50.884;14.818;2023-01-29T04:41:24;-1.70;99.90
5924;DHT22;2987;50.884;14.818;2023-01-29T04:44:11;-1.60;99.90
5924;DHT22;2987;50.884;14.818;2023-01-29T04:46:49;-1.50;99.90
5924;DHT22;2987;50.884;14.818;2023-01-29T04:49:53;-1.70;99.90
5924;DHT22;2987;50.884;14.818;2023-01-29T04:53:12;-1.70;99.90
5924;DHT22;2987;50.884;14.818;2023-01-29T04:55:50;-1.80;99.90
5924;DHT22;2987;50.884;14.818;2023-01-29T04:58:38;-1.70;99.90
5924;DHT22;2987;50.884;14.818;2023-01-29T05:01:16;-1.80;99.90
5924;DHT22;2987;50.884;14.818;2023-01-29T05:03:51;-1.80;99.90
5924;DHT22;2987;50.884;14.818;2023-01-29T05:06:25;-1.90;99.90
5924;DHT22;2987;50.884;14.818;2023-01-29T05:08:57;-2.20;99.90
5924;DHT22;2987;50.884;14.818;2023-01-29T05:11:37;-2.00;99.90
5924;DHT22;2987;50.884;14.818;2023-01-29T05:14:10;-2.00;99.90
5924;DHT22;2987;50.884;14.818;2023-01-29T05:16:44;-2.10;99.90
5924;DHT22;2987;50.884;14.818;2023-01-29T05:19:28;-2.40;99.90
5924;DHT22;2987;50.884;14.818;2023-01-29T05:22:00;-2.20;99.90
5924;DHT22;2987;50.884;14.818;2023-01-29T05:24:36;-2.20;99.90
5924;DHT22;2987;50.884;14.818;2023-01-29T05:27:05;-2.30;99.90
5924;DHT22;2987;50.884;14.818;2023-01-29T05:30:01;-2.70;99.90
5924;DHT22;2987;50.884;14.818;2023-01-29T05:32:32;-2.80;99.90
5924;DHT22;2987;50.884;14.818;2023-01-29T05:35:02;-2.70;99.90
5924;DHT22;2987;50.884;14.818;2023-01-29T05:37:34;-2.80;99.90
5924;DHT22;2987;50.884;14.818;2023-01-29T05:40:08;-2.60;99.90
5924;DHT22;2987;50.884;14.818;2023-01-29T05:42:41;-2.90;99.90
5924;DHT22;2987;50.884;14.818;2023-01-29T05:45:12;-2.50;99.90
5924;DHT22;2987;50.884;14.818;2023-01-29T05:47:44;-2.80;99.90
5924;DHT22;2987;50.884;14.818;2023-01-29T05:50:17;-2.80;99.90
5924;DHT22;2987;50.884;14.818;2023-01-29T05:52:46;-2.90;99.90
5924;DHT22;2987;50.884;14.818;2023-01-29T05:55:22;-3.00;99.90
5924;DHT22;2987;50.884;14.818;2023-01-29T05:57:52;-3.30;99.90
5924;DHT22;2987;50.884;14.818;2023-01-29T06:00:24;-3.30;99.90
5924;DHT22;2987;50.884;14.818;2023-01-29T06:02:59;-3.40;99.90
5924;DHT22;2987;50.884;14.818;2023-01-29T06:05:29;-3.40;99.90
5924;DHT22;2987;50.884;14.818;2023-01-29T06:08:22;-3.50;99.90
5924;DHT22;2987;50.884;14.818;2023-01-29T06:10:54;-3.60;99.90
5924;DHT22;2987;50.884;14.818;2023-01-29T06:13:27;-3.70;99.90
5924;DHT22;2987;50.884;14.818;2023-01-29T06:16:07;-3.40;99.90
5924;DHT22;2987;50.884;14.818;2023-01-29T06:18:39;-3.50;99.90
5924;DHT22;2987;50.884;14.818;2023-01-29T06:21:13;-3.80;99.90
5924;DHT22;2987;50.884;14.818;2023-01-29T06:23:44;-3.80;99.90
5924;DHT22;2987;50.884;14.818;2023-01-29T06:26:15;-3.70;99.90
5924;DHT22;2987;50.884;14.818;2023-01-29T06:28:50;-4.00;99.90
5924;DHT22;2987;50.884;14.818;2023-01-29T06:31:23;-3.80;99.90
5924;DHT22;2987;50.884;14.818;2023-01-29T06:33:54;-3.90;99.90
5924;DHT22;2987;50.884;14.818;2023-01-29T06:36:26;-4.00;99.90
5924;DHT22;2987;50.884;14.818;2023-01-29T06:38:58;-4.00;99.90
5924;DHT22;2987;50.884;14.818;2023-01-29T06:41:30;-3.90;99.90
5924;DHT22;2987;50.884;14.818;2023-01-29T06:44:03;-4.00;99.90
5924;DHT22;2987;50.884;14.818;2023-01-29T06:46:34;-3.60;99.90
5924;DHT22;2987;50.884;14.818;2023-01-29T06:49:10;-3.80;99.90
5924;DHT22;2987;50.884;14.818;2023-01-29T06:51:41;-3.80;99.90
5924;DHT22;2987;50.884;14.818;2023-01-29T06:54:11;-3.90;99.90
5924;DHT22;2987;50.884;14.818;2023-01-29T06:56:42;-3.80;99.90
5924;DHT22;2987;50.884;14.818;2023-01-29T06:59:13;-3.80;99.90
5924;DHT22;2987;50.884;14.818;2023-01-29T07:01:44;-3.50;99.90
5924;DHT22;2987;50.884;14.818;2023-01-29T07:04:15;-3.60;99.90
5924;DHT22;2987;50.884;14.818;2023-01-29T07:06:45;-3.40;99.90
5924;DHT22;2987;50.884;14.818;2023-01-29T07:09:17;-3.40;99.90
5924;DHT22;2987;50.884;14.818;2023-01-29T07:11:47;-3.30;99.90
5924;DHT22;2987;50.884;14.818;2023-01-29T07:14:18;-2.70;99.90
5924;DHT22;2987;50.884;14.818;2023-01-29T07:16:47;-2.90;99.90
5924;DHT22;2987;50.884;14.818;2023-01-29T07:19:18;-2.90;99.90
5924;DHT22;2987;50.884;14.818;2023-01-29T07:21:51;-2.80;99.90
5924;DHT22;2987;50.884;14.818;2023-01-29T07:24:26;-2.60;99.90
5924;DHT22;2987;50.884;14.818;2023-01-29T07:26:58;-2.50;99.90
5924;DHT22;2987;50.884;14.818;2023-01-29T07:29:28;-2.60;99.90
5924;DHT22;2987;50.884;14.818;2023-01-29T07:31:58;-2.10;99.90
5924;DHT22;2987;50.884;14.818;2023-01-29T07:34:27;-2.40;99.90
5924;DHT22;2987;50.884;14.818;2023-01-29T07:37:03;-2.20;99.90
5924;DHT22;2987;50.884;14.818;2023-01-29T07:39:35;-2.00;99.90
5924;DHT22;2987;50.884;14.818;2023-01-29T07:42:09;-2.00;99.90
5924;DHT22;2987;50.884;14.818;2023-01-29T07:44:44;-2.00;99.90
5924;DHT22;2987;50.884;14.818;2023-01-29T07:47:20;-1.80;99.90
5924;DHT22;2987;50.884;14.818;2023-01-29T07:49:52;-1.70;99.90
5924;DHT22;2987;50.884;14.818;2023-01-29T07:52:21;-1.90;99.90
5924;DHT22;2987;50.884;14.818;2023-01-29T07:54:52;-1.50;99.90
5924;DHT22;2987;50.884;14.818;2023-01-29T07:57:23;-1.50;99.90
5924;DHT22;2987;50.884;14.818;2023-01-29T07:59:53;-1.50;99.90
5924;DHT22;2987;50.884;14.818;2023-01-29T08:02:31;-1.50;99.90
5924;DHT22;2987;50.884;14.818;2023-01-29T08:05:04;-1.30;99.90
5924;DHT22;2987;50.884;14.818;2023-01-29T08:07:42;-1.60;99.90
5924;DHT22;2987;50.884;14.818;2023-01-29T08:10:13;-1.30;99.90
5924;DHT22;2987;50.884;14.818;2023-01-29T08:12:44;-1.30;99.90
5924;DHT22;2987;50.884;14.818;2023-01-29T08:15:18;-1.30;99.90
5924;DHT22;2987;50.884;14.818;2023-01-29T08:17:48;-1.10;99.90
5924;DHT22;2987;50.884;14.818;2023-01-29T08:20:20;-1.10;99.90
5924;DHT22;2987;50.884;14.818;2023-01-29T08:22:59;-1.00;99.90
5924;DHT22;2987;50.884;14.818;2023-01-29T08:25:31;-1.10;99.90
5924;DHT22;2987;50.884;14.818;2023-01-29T08:28:02;-0.90;99.90
5924;DHT22;2987;50.884;14.818;2023-01-29T08:30:34;-0.80;99.90
5924;DHT22;2987;50.884;14.818;2023-01-29T08:33:04;-1.00;99.90
5924;DHT22;2987;50.884;14.818;2023-01-29T08:35:40;-0.70;99.90
5924;DHT22;2987;50.884;14.818;2023-01-29T08:38:10;-0.60;99.90
5924;DHT22;2987;50.884;14.818;2023-01-29T08:40:40;-0.50;99.90
5924;DHT22;2987;50.884;14.818;2023-01-29T08:43:11;-0.70;99.90
5924;DHT22;2987;50.884;14.818;2023-01-29T08:45:42;-0.60;99.90
5924;DHT22;2987;50.884;14.818;2023-01-29T08:48:12;-0.90;99.90
5924;DHT22;2987;50.884;14.818;2023-01-29T08:50:45;-0.60;99.90
5924;DHT22;2987;50.884;14.818;2023-01-29T08:53:17;-0.70;99.90
5924;DHT22;2987;50.884;14.818;2023-01-29T08:55:58;-0.50;99.90
5924;DHT22;2987;50.884;14.818;2023-01-29T08:58:30;-0.20;99.90
5924;DHT22;2987;50.884;14.818;2023-01-29T09:01:08;-0.30;99.90
5924;DHT22;2987;50.884;14.818;2023-01-29T09:03:41;-0.30;99.90
5924;DHT22;2987;50.884;14.818;2023-01-29T09:06:14;-0.30;99.90
5924;DHT22;2987;50.884;14.818;2023-01-29T09:08:47;-0.10;99.90
5924;DHT22;2987;50.884;14.818;2023-01-29T09:11:18;-0.10;99.90
5924;DHT22;2987;50.884;14.818;2023-01-29T09:13:58;0.20;99.90
5924;DHT22;2987;50.884;14.818;2023-01-29T09:16:35;0.20;99.90
5924;DHT22;2987;50.884;14.818;2023-01-29T09:19:05;0.20;99.90
5924;DHT22;2987;50.884;14.818;2023-01-29T09:21:36;0.20;99.90
5924;DHT22;2987;50.884;14.818;2023-01-29T09:24:08;0.20;99.90
5924;DHT22;2987;50.884;14.818;2023-01-29T09:26:40;0.20;99.90
5924;DHT22;2987;50.884;14.818;2023-01-29T09:29:11;0.00;99.90
5924;DHT22;2987;50.884;14.818;2023-01-29T09:31:42;0.20;99.90
5924;DHT22;2987;50.884;14.818;2023-01-29T09:34:11;0.20;99.90
5924;DHT22;2987;50.884;14.818;2023-01-29T09:36:42;0.20;99.90
5924;DHT22;2987;50.884;14.818;2023-01-29T09:39:13;0.20;99.90
5924;DHT22;2987;50.884;14.818;2023-01-29T09:47:35;0.20;99.90
5924;DHT22;2987;50.884;14.818;2023-01-29T09:50:39;0.20;99.90
5924;DHT22;2987;50.884;14.818;2023-01-29T09:53:19;0.20;99.90
5924;DHT22;2987;50.884;14.818;2023-01-29T09:58:38;0.20;99.90
5924;DHT22;2987;50.884;14.818;2023-01-29T10:04:36;0.30;99.90
5924;DHT22;2987;50.884;14.818;2023-01-29T10:29:27;0.30;99.90
5924;DHT22;2987;50.884;14.818;2023-01-29T10:32:01;0.50;99.90
5924;DHT22;2987;50.884;14.818;2023-01-29T10:34:39;0.40;99.90
5924;DHT22;2987;50.884;14.818;2023-01-29T10:37:22;0.30;99.90
5924;DHT22;2987;50.884;14.818;2023-01-29T10:39:55;0.60;99.90
5924;DHT22;2987;50.884;14.818;2023-01-29T10:45:41;0.10;99.90
5924;DHT22;2987;50.884;14.818;2023-01-29T10:51:13;0.30;99.90
5924;DHT22;2987;50.884;14.818;2023-01-29T10:54:06;0.30;99.90
5924;DHT22;2987;50.884;14.818;2023-01-29T10:59:31;0.40;99.90
5924;DHT22;2987;50.884;14.818;2023-01-29T11:02:15;0.10;99.90
5924;DHT22;2987;50.884;14.818;2023-01-29T11:04:48;0.10;99.90
5924;DHT22;2987;50.884;14.818;2023-01-29T11:07:19;0.40;99.90
5924;DHT22;2987;50.884;14.818;2023-01-29T11:10:18;0.20;99.90
5924;DHT22;2987;50.884;14.818;2023-01-29T11:12:51;0.20;99.90
5924;DHT22;2987;50.884;14.818;2023-01-29T11:15:34;0.20;99.90
5924;DHT22;2987;50.884;14.818;2023-01-29T11:18:13;0.20;99.90
5924;DHT22;2987;50.884;14.818;2023-01-29T11:20:45;0.20;99.90
5924;DHT22;2987;50.884;14.818;2023-01-29T11:23:26;0.40;99.90
5924;DHT22;2987;50.884;14.818;2023-01-29T11:25:58;0.60;99.90
5924;DHT22;2987;50.884;14.818;2023-01-29T11:28:39;0.40;99.90
5924;DHT22;2987;50.884;14.818;2023-01-29T11:31:35;0.40;99.90
5924;DHT22;2987;50.884;14.818;2023-01-29T11:34:23;0.60;99.90
5924;DHT22;2987;50.884;14.818;2023-01-29T11:37:00;0.40;99.90
5924;DHT22;2987;50.884;14.818;2023-01-29T11:39:44;0.60;99.90
5924;DHT22;2987;50.884;14.818;2023-01-29T11:42:21;0.40;99.90
5924;DHT22;2987;50.884;14.818;2023-01-29T11:44:54;0.80;99.90
5924;DHT22;2987;50.884;14.818;2023-01-29T11:47:28;0.60;99.90
5924;DHT22;2987;50.884;14.818;2023-01-29T11:50:00;0.60;99.90
5924;DHT22;2987;50.884;14.818;2023-01-29T11:52:39;0.40;99.90
5924;DHT22;2987;50.884;14.818;2023-01-29T11:55:21;0.30;99.90
5924;DHT22;2987;50.884;14.818;2023-01-29T11:58:10;0.30;99.90
5924;DHT22;2987;50.884;14.818;2023-01-29T12:00:48;0.20;99.90
5924;DHT22;2987;50.884;14.818;2023-01-29T12:06:00;0.40;99.90
5924;DHT22;2987;50.884;14.818;2023-01-29T12:08:36;0.30;99.90
5924;DHT22;2987;50.884;14.818;2023-01-29T12:11:23;0.40;99.90
5924;DHT22;2987;50.884;14.818;2023-01-29T12:14:00;0.60;99.90
5924;DHT22;2987;50.884;14.818;2023-01-29T12:16:52;0.40;99.90
5924;DHT22;2987;50.884;14.818;2023-01-29T12:19:45;0.70;99.90
5924;DHT22;2987;50.884;14.818;2023-01-29T12:39:23;0.40;99.90
5924;DHT22;2987;50.884;14.818;2023-01-29T12:44:45;0.40;99.90
5924;DHT22;2987;50.884;14.818;2023-01-29T12:47:42;0.60;99.90
5924;DHT22;2987;50.884;14.818;2023-01-29T12:52:58;0.60;99.90
5924;DHT22;2987;50.884;14.818;2023-01-29T12:55:41;0.90;99.90
5924;DHT22;2987;50.884;14.818;2023-01-29T12:58:34;0.60;99.90
5924;DHT22;2987;50.884;14.818;2023-01-29T13:01:27;0.60;99.90
5924;DHT22;2987;50.884;14.818;2023-01-29T13:07:09;0.50;99.90
5924;DHT22;2987;50.884;14.818;2023-01-29T13:09:48;0.70;99.90
5924;DHT22;2987;50.884;14.818;2023-01-29T13:12:26;0.60;99.90
5924;DHT22;2987;50.884;14.818;2023-01-29T13:15:02;0.80;99.90
5924;DHT22;2987;50.884;14.818;2023-01-29T13:18:01;0.70;99.90
5924;DHT22;2987;50.884;14.818;2023-01-29T13:20:58;0.60;99.90
5924;DHT22;2987;50.884;14.818;2023-01-29T13:23:35;0.80;99.90
5924;DHT22;2987;50.884;14.818;2023-01-29T13:26:08;0.70;99.90
5924;DHT22;2987;50.884;14.818;2023-01-29T13:28:44;0.80;99.90
5924;DHT22;2987;50.884;14.818;2023-01-29T13:31:20;1.10;99.90
5924;DHT22;2987;50.884;14.818;2023-01-29T13:34:01;0.90;99.90
5924;DHT22;2987;50.884;14.818;2023-01-29T13:36:40;0.90;99.90
5924;DHT22;2987;50.884;14.818;2023-01-29T13:39:36;0.90;99.90
5924;DHT22;2987;50.884;14.818;2023-01-29T13:42:18;0.60;99.90
5924;DHT22;2987;50.884;14.818;2023-01-29T13:45:01;0.50;99.90
5924;DHT22;2987;50.884;14.818;2023-01-29T13:47:35;0.70;99.90
5924;DHT22;2987;50.884;14.818;2023-01-29T13:50:28;0.60;99.90
5924;DHT22;2987;50.884;14.818;2023-01-29T13:53:08;0.80;99.90
5924;DHT22;2987;50.884;14.818;2023-01-29T14:02:16;0.80;99.90
5924;DHT22;2987;50.884;14.818;2023-01-29T14:05:36;0.40;99.90
5924;DHT22;2987;50.884;14.818;2023-01-29T14:11:32;0.30;99.90
5924;DHT22;2987;50.884;14.818;2023-01-29T14:17:24;0.40;99.90
5924;DHT22;2987;50.884;14.818;2023-01-29T14:20:02;0.30;99.90
5924;DHT22;2987;50.884;14.818;2023-01-29T14:22:37;0.40;99.90
5924;DHT22;2987;50.884;14.818;2023-01-29T14:25:06;0.30;99.90
5924;DHT22;2987;50.884;14.818;2023-01-29T14:27:36;0.60;99.90
5924;DHT22;2987;50.884;14.818;2023-01-29T14:30:35;0.40;99.90
5924;DHT22;2987;50.884;14.818;2023-01-29T14:33:14;0.10;99.90
5924;DHT22;2987;50.884;14.818;2023-01-29T14:35:53;0.20;99.90
5924;DHT22;2987;50.884;14.818;2023-01-29T14:38:28;0.20;99.90
5924;DHT22;2987;50.884;14.818;2023-01-29T14:41:24;0.20;99.90
5924;DHT22;2987;50.884;14.818;2023-01-29T14:50:01;0.20;99.90
5924;DHT22;2987;50.884;14.818;2023-01-29T14:58:10;0.20;99.90
5924;DHT22;2987;50.884;14.818;2023-01-29T15:00:51;0.10;99.90
5924;DHT22;2987;50.884;14.818;2023-01-29T15:05:58;0.20;99.90
5924;DHT22;2987;50.884;14.818;2023-01-29T15:08:39;0.10;99.90
5924;DHT22;2987;50.884;14.818;2023-01-29T15:11:20;0.20;99.90
5924;DHT22;2987;50.884;14.818;2023-01-29T15:14:35;0.20;99.90
5924;DHT22;2987;50.884;14.818;2023-01-29T15:19:56;0.20;99.90
5924;DHT22;2987;50.884;14.818;2023-01-29T15:22:26;0.00;99.90
5924;DHT22;2987;50.884;14.818;2023-01-29T15:25:09;0.00;99.90
5924;DHT22;2987;50.884;14.818;2023-01-29T15:27:49;-0.10;99.90
5924;DHT22;2987;50.884;14.818;2023-01-29T15:30:25;0.00;99.90
5924;DHT22;2987;50.884;14.818;2023-01-29T15:32:56;0.00;99.90
5924;DHT22;2987;50.884;14.818;2023-01-29T15:39:45;0.00;99.90
5924;DHT22;2987;50.884;14.818;2023-01-29T15:42:15;0.10;99.90
5924;DHT22;2987;50.884;14.818;2023-01-29T15:44:51;-0.10;99.90
5924;DHT22;2987;50.884;14.818;2023-01-29T15:47:29;0.00;99.90
5924;DHT22;2987;50.884;14.818;2023-01-29T15:50:00;-0.10;99.90
5924;DHT22;2987;50.884;14.818;2023-01-29T15:52:31;0.00;99.90
5924;DHT22;2987;50.884;14.818;2023-01-29T15:55:31;-0.20;99.90
5924;DHT22;2987;50.884;14.818;2023-01-29T15:58:02;-0.10;99.90
5924;DHT22;2987;50.884;14.818;2023-01-29T16:00:35;0.00;99.90
5924;DHT22;2987;50.884;14.818;2023-01-29T16:03:23;-0.40;99.90
5924;DHT22;2987;50.884;14.818;2023-01-29T16:05:54;0.00;99.90
5924;DHT22;2987;50.884;14.818;2023-01-29T16:08:27;-0.10;99.90
5924;DHT22;2987;50.884;14.818;2023-01-29T16:11:01;0.00;99.90
5924;DHT22;2987;50.884;14.818;2023-01-29T16:13:35;0.00;99.90
5924;DHT22;2987;50.884;14.818;2023-01-29T16:16:23;0.00;99.90
5924;DHT22;2987;50.884;14.818;2023-01-29T16:18:55;-0.20;99.90
5924;DHT22;2987;50.884;14.818;2023-01-29T16:24:05;-0.20;99.90
5924;DHT22;2987;50.884;14.818;2023-01-29T16:26:44;-0.20;99.90
5924;DHT22;2987;50.884;14.818;2023-01-29T16:29:21;-0.10;99.90
5924;DHT22;2987;50.884;14.818;2023-01-29T16:31:55;-0.20;99.90
5924;DHT22;2987;50.884;14.818;2023-01-29T16:34:47;-0.10;99.90
5924;DHT22;2987;50.884;14.818;2023-01-29T16:37:27;-0.20;99.90
5924;DHT22;2987;50.884;14.818;2023-01-29T16:39:58;-0.20;99.90
5924;DHT22;2987;50.884;14.818;2023-01-29T16:42:42;-0.20;99.90
5924;DHT22;2987;50.884;14.818;2023-01-29T16:45:31;-0.10;99.90
5924;DHT22;2987;50.884;14.818;2023-01-29T16:48:24;-0.20;99.90
5924;DHT22;2987;50.884;14.818;2023-01-29T16:51:21;-0.20;99.90
5924;DHT22;2987;50.884;14.818;2023-01-29T16:54:05;-0.20;99.90
5924;DHT22;2987;50.884;14.818;2023-01-29T16:56:39;-0.20;99.90
5924;DHT22;2987;50.884;14.818;2023-01-29T16:59:19;-0.30;99.90
5924;DHT22;2987;50.884;14.818;2023-01-29T17:02:03;-0.20;99.90
5924;DHT22;2987;50.884;14.818;2023-01-29T17:04:35;-0.20;99.90
5924;DHT22;2987;50.884;14.818;2023-01-29T17:07:24;-0.30;99.90
5924;DHT22;2987;50.884;14.818;2023-01-29T17:10:01;-0.30;99.90
5924;DHT22;2987;50.884;14.818;2023-01-29T17:12:34;-0.30;99.90
5924;DHT22;2987;50.884;14.818;2023-01-29T17:17:58;-0.20;99.90
5924;DHT22;2987;50.884;14.818;2023-01-29T17:20:30;-0.30;99.90
5924;DHT22;2987;50.884;14.818;2023-01-29T17:23:01;-0.30;99.90
5924;DHT22;2987;50.884;14.818;2023-01-29T17:25:42;-0.30;99.90
5924;DHT22;2987;50.884;14.818;2023-01-29T17:28:16;-0.20;99.90
5924;DHT22;2987;50.884;14.818;2023-01-29T17:30:46;-0.30;99.90
5924;DHT22;2987;50.884;14.818;2023-01-29T17:33:16;-0.30;99.90
5924;DHT22;2987;50.884;14.818;2023-01-29T17:35:57;-0.30;99.90
5924;DHT22;2987;50.884;14.818;2023-01-29T17:38:27;-0.20;99.90
5924;DHT22;2987;50.884;14.818;2023-01-29T17:41:23;-0.20;99.90
5924;DHT22;2987;50.884;14.818;2023-01-29T17:43:55;-0.20;99.90
5924;DHT22;2987;50.884;14.818;2023-01-29T17:46:29;-0.30;99.90
5924;DHT22;2987;50.884;14.818;2023-01-29T17:49:00;-0.30;99.90
5924;DHT22;2987;50.884;14.818;2023-01-29T17:51:33;-0.30;99.90
5924;DHT22;2987;50.884;14.818;2023-01-29T17:54:05;-0.40;99.90
5924;DHT22;2987;50.884;14.818;2023-01-29T17:56:37;-0.20;99.90
5924;DHT22;2987;50.884;14.818;2023-01-29T17:59:18;-0.30;99.90
5924;DHT22;2987;50.884;14.818;2023-01-29T18:01:58;-0.20;99.90
5924;DHT22;2987;50.884;14.818;2023-01-29T18:04:29;-0.30;99.90
5924;DHT22;2987;50.884;14.818;2023-01-29T18:07:02;-0.20;99.90
5924;DHT22;2987;50.884;14.818;2023-01-29T18:09:36;-0.30;99.90
5924;DHT22;2987;50.884;14.818;2023-01-29T18:12:14;-0.30;99.90
5924;DHT22;2987;50.884;14.818;2023-01-29T18:14:45;-0.30;99.90
5924;DHT22;2987;50.884;14.818;2023-01-29T18:17:16;-0.30;99.90
5924;DHT22;2987;50.884;14.818;2023-01-29T18:19:59;-0.30;99.90
5924;DHT22;2987;50.884;14.818;2023-01-29T18:22:30;-0.20;99.90
5924;DHT22;2987;50.884;14.818;2023-01-29T18:25:20;-0.20;99.90
5924;DHT22;2987;50.884;14.818;2023-01-29T18:27:50;-0.20;99.90
5924;DHT22;2987;50.884;14.818;2023-01-29T18:30:19;-0.20;99.90
5924;DHT22;2987;50.884;14.818;2023-01-29T18:32:48;-0.20;99.90
5924;DHT22;2987;50.884;14.818;2023-01-29T18:35:22;-0.30;99.90
5924;DHT22;2987;50.884;14.818;2023-01-29T18:37:51;-0.30;99.90
5924;DHT22;2987;50.884;14.818;2023-01-29T18:40:20;-0.30;99.90
5924;DHT22;2987;50.884;14.818;2023-01-29T18:42:54;-0.10;99.90
5924;DHT22;2987;50.884;14.818;2023-01-29T18:45:22;-0.20;99.90
5924;DHT22;2987;50.884;14.818;2023-01-29T18:47:52;-0.20;99.90
5924;DHT22;2987;50.884;14.818;2023-01-29T18:50:21;-0.20;99.90
5924;DHT22;2987;50.884;14.818;2023-01-29T18:53:02;-0.20;99.90
5924;DHT22;2987;50.884;14.818;2023-01-29T18:55:42;-0.30;99.90
5924;DHT22;2987;50.884;14.818;2023-01-29T18:58:10;-0.20;99.90
5924;DHT22;2987;50.884;14.818;2023-01-29T19:00:44;-0.20;99.90
5924;DHT22;2987;50.884;14.818;2023-01-29T19:03:12;-0.20;99.90
5924;DHT22;2987;50.884;14.818;2023-01-29T19:05:43;-0.30;99.90
5924;DHT22;2987;50.884;14.818;2023-01-29T19:08:14;-0.30;99.90
5924;DHT22;2987;50.884;14.818;2023-01-29T19:10:42;-0.30;99.90
5924;DHT22;2987;50.884;14.818;2023-01-29T19:13:13;-0.30;99.90
5924;DHT22;2987;50.884;14.818;2023-01-29T19:15:42;-0.30;99.90
5924;DHT22;2987;50.884;14.818;2023-01-29T19:18:11;-0.20;99.90